sensor_id;sensor_type;location;lat;lon;timestamp;P1;durP1;ratioP1;P2;durP2;ratioP2
13753;SDS011;6948;51.216;6.778;2022-07-22T00:02:08;10.30;;;6.60;;
13753;SDS011;6948;51.216;6.778;2022-07-22T00:04:34;12.17;;;6.97;;
13753;SDS011;6948;51.216;6.778;2022-07-22T00:07:01;13.50;;;6.70;;
13753;SDS011;6948;51.216;6.778;2022-07-22T00:09:27;14.67;;;6.23;;
13753;SDS011;6948;51.216;6.778;2022-07-22T00:11:53;11.23;;;6.10;;
13753;SDS011;6948;51.216;6.778;2022-07-22T00:14:19;9.00;;;6.00;;
13753;SDS011;6948;51.216;6.778;2022-07-22T00:16:45;11.13;;;5.77;;
13753;SDS011;6948;51.216;6.778;2022-07-22T00:19:11;11.60;;;6.30;;
13753;SDS011;6948;51.216;6.778;2022-07-22T00:21:38;10.27;;;7.13;;
13753;SDS011;6948;51.216;6.778;2022-07-22T00:24:04;11.30;;;6.67;;
13753;SDS011;6948;51.216;6.778;2022-07-22T00:26:30;14.07;;;6.60;;
13753;SDS011;6948;51.216;6.778;2022-07-22T00:28:56;9.53;;;6.43;;
13753;SDS011;6948;51.216;6.778;2022-07-22T00:31:22;11.63;;;6.23;;
13753;SDS011;6948;51.216;6.778;2022-07-22T00:33:48;10.87;;;5.80;;
13753;SDS011;6948;51.216;6.778;2022-07-22T00:36:14;10.57;;;6.63;;
13753;SDS011;6948;51.216;6.778;2022-07-22T00:38:40;7.03;;;5.83;;
13753;SDS011;6948;51.216;6.778;2022-07-22T00:41:06;15.47;;;7.23;;
13753;SDS011;6948;51.216;6.778;2022-07-22T00:43:49;10.83;;;7.03;;
13753;SDS011;6948;51.216;6.778;2022-07-22T00:46:15;12.53;;;7.67;;
13753;SDS011;6948;51.216;6.778;2022-07-22T00:48:41;12.10;;;7.40;;
13753;SDS011;6948;51.216;6.778;2022-07-22T00:51:08;12.60;;;7.60;;
13753;SDS011;6948;51.216;6.778;2022-07-22T00:53:34;12.50;;;8.00;;
13753;SDS011;6948;51.216;6.778;2022-07-22T00:56:00;16.43;;;8.53;;
13753;SDS011;6948;51.216;6.778;2022-07-22T00:58:27;13.03;;;7.97;;
13753;SDS011;6948;51.216;6.778;2022-07-22T01:00:53;12.03;;;8.10;;
13753;SDS011;6948;51.216;6.778;2022-07-22T01:03:19;14.23;;;8.27;;
13753;SDS011;6948;51.216;6.778;2022-07-22T01:05:45;11.17;;;8.40;;
13753;SDS011;6948;51.216;6.778;2022-07-22T01:08:11;15.97;;;9.33;;
13753;SDS011;6948;51.216;6.778;2022-07-22T01:10:37;15.50;;;9.27;;
13753;SDS011;6948;51.216;6.778;2022-07-22T01:13:03;13.77;;;8.77;;
13753;SDS011;6948;51.216;6.778;2022-07-22T01:15:29;12.37;;;9.13;;
13753;SDS011;6948;51.216;6.778;2022-07-22T01:17:56;13.00;;;9.30;;
13753;SDS011;6948;51.216;6.778;2022-07-22T01:20:22;13.47;;;9.10;;
13753;SDS011;6948;51.216;6.778;2022-07-22T01:22:48;14.77;;;9.30;;
13753;SDS011;6948;51.216;6.778;2022-07-22T01:25:14;13.73;;;9.17;;
13753;SDS011;6948;51.216;6.778;2022-07-22T01:27:40;15.37;;;9.47;;
13753;SDS011;6948;51.216;6.778;2022-07-22T01:30:06;14.00;;;9.67;;
13753;SDS011;6948;51.216;6.778;2022-07-22T01:32:33;14.97;;;9.37;;
13753;SDS011;6948;51.216;6.778;2022-07-22T01:34:59;11.83;;;8.50;;
13753;SDS011;6948;51.216;6.778;2022-07-22T01:37:25;13.20;;;9.50;;
13753;SDS011;6948;51.216;6.778;2022-07-22T01:39:51;13.70;;;8.93;;
13753;SDS011;6948;51.216;6.778;2022-07-22T01:42:17;15.27;;;8.93;;
13753;SDS011;6948;51.216;6.778;2022-07-22T01:44:43;14.23;;;9.10;;
13753;SDS011;6948;51.216;6.778;2022-07-22T01:47:09;14.67;;;8.90;;
13753;SDS011;6948;51.216;6.778;2022-07-22T01:49:36;15.67;;;9.33;;
13753;SDS011;6948;51.216;6.778;2022-07-22T01:52:03;12.93;;;8.87;;
13753;SDS011;6948;51.216;6.778;2022-07-22T01:54:29;12.77;;;8.83;;
13753;SDS011;6948;51.216;6.778;2022-07-22T01:56:55;13.83;;;9.37;;
13753;SDS011;6948;51.216;6.778;2022-07-22T01:59:21;14.73;;;8.73;;
13753;SDS011;6948;51.216;6.778;2022-07-22T02:01:47;13.73;;;9.27;;
13753;SDS011;6948;51.216;6.778;2022-07-22T02:04:13;11.07;;;8.27;;
13753;SDS011;6948;51.216;6.778;2022-07-22T02:06:39;11.27;;;9.00;;
13753;SDS011;6948;51.216;6.778;2022-07-22T02:09:05;13.13;;;9.10;;
13753;SDS011;6948;51.216;6.778;2022-07-22T02:11:33;12.43;;;8.47;;
13753;SDS011;6948;51.216;6.778;2022-07-22T02:13:59;13.83;;;8.97;;
13753;SDS011;6948;51.216;6.778;2022-07-22T02:16:25;13.73;;;8.80;;
13753;SDS011;6948;51.216;6.778;2022-07-22T02:18:51;15.07;;;9.10;;
13753;SDS011;6948;51.216;6.778;2022-07-22T02:21:17;16.73;;;9.20;;
13753;SDS011;6948;51.216;6.778;2022-07-22T02:23:43;13.87;;;9.30;;
13753;SDS011;6948;51.216;6.778;2022-07-22T02:26:09;15.80;;;8.57;;
13753;SDS011;6948;51.216;6.778;2022-07-22T02:28:35;10.63;;;8.97;;
13753;SDS011;6948;51.216;6.778;2022-07-22T02:31:02;12.87;;;9.23;;
13753;SDS011;6948;51.216;6.778;2022-07-22T02:33:28;14.43;;;9.13;;
13753;SDS011;6948;51.216;6.778;2022-07-22T02:35:54;14.17;;;9.00;;
13753;SDS011;6948;51.216;6.778;2022-07-22T02:38:21;12.23;;;8.33;;
13753;SDS011;6948;51.216;6.778;2022-07-22T02:40:47;13.47;;;8.30;;
13753;SDS011;6948;51.216;6.778;2022-07-22T02:43:13;12.17;;;8.10;;
13753;SDS011;6948;51.216;6.778;2022-07-22T02:45:39;12.43;;;7.70;;
13753;SDS011;6948;51.216;6.778;2022-07-22T02:48:05;10.77;;;8.00;;
13753;SDS011;6948;51.216;6.778;2022-07-22T02:50:31;9.87;;;7.53;;
13753;SDS011;6948;51.216;6.778;2022-07-22T02:52:58;9.70;;;7.53;;
13753;SDS011;6948;51.216;6.778;2022-07-22T02:55:24;9.47;;;7.40;;
13753;SDS011;6948;51.216;6.778;2022-07-22T02:57:50;9.63;;;7.47;;
13753;SDS011;6948;51.216;6.778;2022-07-22T03:00:16;11.83;;;7.90;;
13753;SDS011;6948;51.216;6.778;2022-07-22T03:02:42;10.93;;;7.73;;
13753;SDS011;6948;51.216;6.778;2022-07-22T03:05:08;9.37;;;7.43;;
13753;SDS011;6948;51.216;6.778;2022-07-22T03:07:35;11.07;;;8.10;;
13753;SDS011;6948;51.216;6.778;2022-07-22T03:10:02;12.13;;;7.60;;
13753;SDS011;6948;51.216;6.778;2022-07-22T03:12:28;12.80;;;7.67;;
13753;SDS011;6948;51.216;6.778;2022-07-22T03:14:54;9.93;;;7.53;;
13753;SDS011;6948;51.216;6.778;2022-07-22T03:17:20;10.63;;;7.50;;
13753;SDS011;6948;51.216;6.778;2022-07-22T03:19:46;9.73;;;7.43;;
13753;SDS011;6948;51.216;6.778;2022-07-22T03:22:12;10.57;;;7.23;;
13753;SDS011;6948;51.216;6.778;2022-07-22T03:24:38;11.53;;;7.30;;
13753;SDS011;6948;51.216;6.778;2022-07-22T03:27:04;10.53;;;7.13;;
13753;SDS011;6948;51.216;6.778;2022-07-22T03:29:30;10.03;;;7.13;;
13753;SDS011;6948;51.216;6.778;2022-07-22T03:31:56;10.37;;;7.20;;
13753;SDS011;6948;51.216;6.778;2022-07-22T03:34:22;14.87;;;7.30;;
13753;SDS011;6948;51.216;6.778;2022-07-22T03:36:49;11.90;;;7.40;;
13753;SDS011;6948;51.216;6.778;2022-07-22T03:39:15;10.80;;;6.90;;
13753;SDS011;6948;51.216;6.778;2022-07-22T03:41:41;10.77;;;6.70;;
13753;SDS011;6948;51.216;6.778;2022-07-22T03:44:07;9.93;;;6.80;;
13753;SDS011;6948;51.216;6.778;2022-07-22T03:46:33;12.77;;;7.03;;
13753;SDS011;6948;51.216;6.778;2022-07-22T03:48:59;10.17;;;6.37;;
13753;SDS011;6948;51.216;6.778;2022-07-22T03:51:25;12.10;;;7.37;;
13753;SDS011;6948;51.216;6.778;2022-07-22T03:53:51;10.80;;;7.80;;
13753;SDS011;6948;51.216;6.778;2022-07-22T03:56:17;11.83;;;7.10;;
13753;SDS011;6948;51.216;6.778;2022-07-22T03:58:43;13.17;;;8.50;;
13753;SDS011;6948;51.216;6.778;2022-07-22T04:01:09;10.47;;;7.37;;
13753;SDS011;6948;51.216;6.778;2022-07-22T04:03:35;12.43;;;7.57;;
13753;SDS011;6948;51.216;6.778;2022-07-22T04:06:01;11.27;;;7.00;;
13753;SDS011;6948;51.216;6.778;2022-07-22T04:08:28;9.77;;;6.63;;
13753;SDS011;6948;51.216;6.778;2022-07-22T04:10:54;11.57;;;7.47;;
13753;SDS011;6948;51.216;6.778;2022-07-22T04:13:19;13.93;;;7.03;;
13753;SDS011;6948;51.216;6.778;2022-07-22T04:15:45;12.03;;;7.40;;
13753;SDS011;6948;51.216;6.778;2022-07-22T04:18:11;11.47;;;7.23;;
13753;SDS011;6948;51.216;6.778;2022-07-22T04:20:37;15.93;;;10.13;;
13753;SDS011;6948;51.216;6.778;2022-07-22T04:23:03;15.27;;;10.60;;
13753;SDS011;6948;51.216;6.778;2022-07-22T04:25:30;15.57;;;11.40;;
13753;SDS011;6948;51.216;6.778;2022-07-22T04:27:55;13.83;;;10.43;;
13753;SDS011;6948;51.216;6.778;2022-07-22T04:30:22;18.23;;;10.10;;
13753;SDS011;6948;51.216;6.778;2022-07-22T04:32:48;13.40;;;9.93;;
13753;SDS011;6948;51.216;6.778;2022-07-22T04:35:14;16.60;;;8.33;;
13753;SDS011;6948;51.216;6.778;2022-07-22T04:37:40;11.70;;;7.70;;
13753;SDS011;6948;51.216;6.778;2022-07-22T04:40:06;11.77;;;7.63;;
13753;SDS011;6948;51.216;6.778;2022-07-22T04:42:32;10.90;;;7.10;;
13753;SDS011;6948;51.216;6.778;2022-07-22T04:44:58;12.97;;;7.47;;
13753;SDS011;6948;51.216;6.778;2022-07-22T04:47:24;10.47;;;6.80;;
13753;SDS011;6948;51.216;6.778;2022-07-22T04:49:50;14.60;;;6.50;;
13753;SDS011;6948;51.216;6.778;2022-07-22T04:52:16;12.83;;;6.80;;
13753;SDS011;6948;51.216;6.778;2022-07-22T04:54:42;10.43;;;7.07;;
13753;SDS011;6948;51.216;6.778;2022-07-22T04:57:08;10.27;;;6.10;;
13753;SDS011;6948;51.216;6.778;2022-07-22T04:59:34;11.23;;;6.23;;
13753;SDS011;6948;51.216;6.778;2022-07-22T05:02:01;13.43;;;6.63;;
13753;SDS011;6948;51.216;6.778;2022-07-22T05:04:28;12.10;;;6.67;;
13753;SDS011;6948;51.216;6.778;2022-07-22T05:06:54;10.57;;;7.33;;
13753;SDS011;6948;51.216;6.778;2022-07-22T05:09:20;15.80;;;8.07;;
13753;SDS011;6948;51.216;6.778;2022-07-22T05:11:46;12.60;;;7.77;;
13753;SDS011;6948;51.216;6.778;2022-07-22T05:14:12;12.40;;;7.60;;
13753;SDS011;6948;51.216;6.778;2022-07-22T05:16:38;11.10;;;7.07;;
13753;SDS011;6948;51.216;6.778;2022-07-22T05:19:04;9.03;;;6.90;;
13753;SDS011;6948;51.216;6.778;2022-07-22T05:21:31;10.67;;;7.00;;
13753;SDS011;6948;51.216;6.778;2022-07-22T05:23:57;10.73;;;7.40;;
13753;SDS011;6948;51.216;6.778;2022-07-22T05:26:23;9.53;;;6.63;;
13753;SDS011;6948;51.216;6.778;2022-07-22T05:28:50;13.27;;;7.57;;
13753;SDS011;6948;51.216;6.778;2022-07-22T05:31:16;9.10;;;6.10;;
13753;SDS011;6948;51.216;6.778;2022-07-22T05:33:42;7.33;;;5.40;;
13753;SDS011;6948;51.216;6.778;2022-07-22T05:36:08;12.50;;;5.30;;
13753;SDS011;6948;51.216;6.778;2022-07-22T05:38:34;12.77;;;5.23;;
13753;SDS011;6948;51.216;6.778;2022-07-22T05:41:01;11.73;;;4.40;;
13753;SDS011;6948;51.216;6.778;2022-07-22T05:43:27;10.50;;;3.77;;
13753;SDS011;6948;51.216;6.778;2022-07-22T05:45:53;8.37;;;3.80;;
13753;SDS011;6948;51.216;6.778;2022-07-22T05:48:19;8.13;;;3.80;;
13753;SDS011;6948;51.216;6.778;2022-07-22T05:50:45;8.50;;;3.30;;
13753;SDS011;6948;51.216;6.778;2022-07-22T05:53:11;9.67;;;3.43;;
13753;SDS011;6948;51.216;6.778;2022-07-22T05:55:37;10.50;;;3.77;;
13753;SDS011;6948;51.216;6.778;2022-07-22T05:58:03;10.93;;;3.57;;
13753;SDS011;6948;51.216;6.778;2022-07-22T06:00:29;8.77;;;3.50;;
13753;SDS011;6948;51.216;6.778;2022-07-22T06:02:55;9.93;;;3.23;;
13753;SDS011;6948;51.216;6.778;2022-07-22T06:05:21;8.63;;;3.70;;
13753;SDS011;6948;51.216;6.778;2022-07-22T06:07:47;8.80;;;3.63;;
13753;SDS011;6948;51.216;6.778;2022-07-22T06:10:14;8.67;;;3.70;;
13753;SDS011;6948;51.216;6.778;2022-07-22T06:12:40;9.73;;;3.63;;
13753;SDS011;6948;51.216;6.778;2022-07-22T06:15:06;11.37;;;3.80;;
13753;SDS011;6948;51.216;6.778;2022-07-22T06:17:32;10.27;;;3.60;;
13753;SDS011;6948;51.216;6.778;2022-07-22T06:19:58;8.43;;;4.10;;
13753;SDS011;6948;51.216;6.778;2022-07-22T06:22:24;6.77;;;3.20;;
13753;SDS011;6948;51.216;6.778;2022-07-22T06:24:50;10.20;;;3.57;;
13753;SDS011;6948;51.216;6.778;2022-07-22T06:27:16;6.50;;;3.30;;
13753;SDS011;6948;51.216;6.778;2022-07-22T06:29:42;8.83;;;3.47;;
13753;SDS011;6948;51.216;6.778;2022-07-22T06:32:08;11.97;;;3.77;;
13753;SDS011;6948;51.216;6.778;2022-07-22T06:34:34;10.57;;;3.67;;
13753;SDS011;6948;51.216;6.778;2022-07-22T06:37:00;11.27;;;3.77;;
13753;SDS011;6948;51.216;6.778;2022-07-22T06:39:26;12.50;;;4.33;;
13753;SDS011;6948;51.216;6.778;2022-07-22T06:41:52;11.40;;;4.33;;
13753;SDS011;6948;51.216;6.778;2022-07-22T06:44:18;9.17;;;3.60;;
13753;SDS011;6948;51.216;6.778;2022-07-22T06:46:44;10.70;;;4.10;;
13753;SDS011;6948;51.216;6.778;2022-07-22T06:49:10;7.97;;;4.17;;
13753;SDS011;6948;51.216;6.778;2022-07-22T06:51:36;10.83;;;4.20;;
13753;SDS011;6948;51.216;6.778;2022-07-22T06:54:02;8.23;;;4.03;;
13753;SDS011;6948;51.216;6.778;2022-07-22T06:56:29;10.67;;;4.37;;
13753;SDS011;6948;51.216;6.778;2022-07-22T06:58:55;9.33;;;4.20;;
13753;SDS011;6948;51.216;6.778;2022-07-22T07:01:21;10.43;;;4.20;;
13753;SDS011;6948;51.216;6.778;2022-07-22T07:03:47;10.50;;;4.00;;
13753;SDS011;6948;51.216;6.778;2022-07-22T07:06:13;8.47;;;3.73;;
13753;SDS011;6948;51.216;6.778;2022-07-22T07:08:39;11.07;;;4.00;;
13753;SDS011;6948;51.216;6.778;2022-07-22T07:11:05;9.53;;;3.80;;
13753;SDS011;6948;51.216;6.778;2022-07-22T07:13:31;7.80;;;4.23;;
13753;SDS011;6948;51.216;6.778;2022-07-22T07:15:58;12.93;;;4.37;;
13753;SDS011;6948;51.216;6.778;2022-07-22T07:18:24;9.27;;;4.20;;
13753;SDS011;6948;51.216;6.778;2022-07-22T07:20:50;9.97;;;4.47;;
13753;SDS011;6948;51.216;6.778;2022-07-22T07:23:16;9.80;;;4.50;;
13753;SDS011;6948;51.216;6.778;2022-07-22T07:25:42;9.07;;;4.70;;
13753;SDS011;6948;51.216;6.778;2022-07-22T07:28:08;9.10;;;4.47;;
13753;SDS011;6948;51.216;6.778;2022-07-22T07:30:34;10.13;;;5.13;;
13753;SDS011;6948;51.216;6.778;2022-07-22T07:33:00;11.43;;;6.80;;
13753;SDS011;6948;51.216;6.778;2022-07-22T07:35:27;11.20;;;5.83;;
13753;SDS011;6948;51.216;6.778;2022-07-22T07:37:53;11.90;;;6.70;;
13753;SDS011;6948;51.216;6.778;2022-07-22T07:40:19;10.57;;;7.33;;
13753;SDS011;6948;51.216;6.778;2022-07-22T07:42:46;12.60;;;7.20;;
13753;SDS011;6948;51.216;6.778;2022-07-22T07:45:12;12.33;;;7.50;;
13753;SDS011;6948;51.216;6.778;2022-07-22T07:47:38;12.63;;;7.93;;
13753;SDS011;6948;51.216;6.778;2022-07-22T07:50:04;11.67;;;7.37;;
13753;SDS011;6948;51.216;6.778;2022-07-22T07:52:35;14.40;;;7.83;;
13753;SDS011;6948;51.216;6.778;2022-07-22T07:55:01;11.70;;;7.73;;
13753;SDS011;6948;51.216;6.778;2022-07-22T07:57:27;11.50;;;6.97;;
13753;SDS011;6948;51.216;6.778;2022-07-22T07:59:53;13.23;;;6.57;;
13753;SDS011;6948;51.216;6.778;2022-07-22T08:02:19;15.17;;;7.90;;
13753;SDS011;6948;51.216;6.778;2022-07-22T08:04:45;16.93;;;8.47;;
13753;SDS011;6948;51.216;6.778;2022-07-22T08:07:11;16.07;;;8.10;;
13753;SDS011;6948;51.216;6.778;2022-07-22T08:09:37;13.67;;;8.73;;
13753;SDS011;6948;51.216;6.778;2022-07-22T08:12:04;13.43;;;8.30;;
13753;SDS011;6948;51.216;6.778;2022-07-22T08:14:31;13.73;;;8.50;;
13753;SDS011;6948;51.216;6.778;2022-07-22T08:16:57;13.33;;;8.20;;
13753;SDS011;6948;51.216;6.778;2022-07-22T08:19:23;16.07;;;9.07;;
13753;SDS011;6948;51.216;6.778;2022-07-22T08:21:49;14.70;;;9.80;;
13753;SDS011;6948;51.216;6.778;2022-07-22T08:24:15;14.33;;;9.17;;
13753;SDS011;6948;51.216;6.778;2022-07-22T08:26:41;14.37;;;9.10;;
13753;SDS011;6948;51.216;6.778;2022-07-22T08:29:07;14.80;;;8.63;;
13753;SDS011;6948;51.216;6.778;2022-07-22T08:31:35;14.00;;;9.43;;
13753;SDS011;6948;51.216;6.778;2022-07-22T08:34:01;16.50;;;10.33;;
13753;SDS011;6948;51.216;6.778;2022-07-22T08:36:28;14.73;;;9.70;;
13753;SDS011;6948;51.216;6.778;2022-07-22T08:38:54;16.00;;;10.10;;
13753;SDS011;6948;51.216;6.778;2022-07-22T08:41:21;14.70;;;8.73;;
13753;SDS011;6948;51.216;6.778;2022-07-22T08:43:47;11.90;;;8.47;;
13753;SDS011;6948;51.216;6.778;2022-07-22T08:46:13;14.70;;;8.83;;
13753;SDS011;6948;51.216;6.778;2022-07-22T08:48:40;15.50;;;9.17;;
13753;SDS011;6948;51.216;6.778;2022-07-22T08:51:06;16.17;;;9.50;;
13753;SDS011;6948;51.216;6.778;2022-07-22T08:53:32;15.23;;;8.70;;
13753;SDS011;6948;51.216;6.778;2022-07-22T08:55:58;13.20;;;8.93;;
13753;SDS011;6948;51.216;6.778;2022-07-22T08:58:24;16.17;;;10.13;;
13753;SDS011;6948;51.216;6.778;2022-07-22T09:03:46;17.13;;;10.07;;
13753;SDS011;6948;51.216;6.778;2022-07-22T09:06:12;17.10;;;10.30;;
13753;SDS011;6948;51.216;6.778;2022-07-22T09:08:56;19.17;;;12.07;;
13753;SDS011;6948;51.216;6.778;2022-07-22T09:11:23;16.90;;;11.40;;
13753;SDS011;6948;51.216;6.778;2022-07-22T09:13:49;19.37;;;11.50;;
13753;SDS011;6948;51.216;6.778;2022-07-22T09:16:15;17.47;;;11.70;;
13753;SDS011;6948;51.216;6.778;2022-07-22T09:18:45;17.97;;;13.40;;
13753;SDS011;6948;51.216;6.778;2022-07-22T09:21:12;18.77;;;11.03;;
13753;SDS011;6948;51.216;6.778;2022-07-22T09:23:39;17.63;;;10.83;;
13753;SDS011;6948;51.216;6.778;2022-07-22T09:26:06;19.53;;;11.17;;
13753;SDS011;6948;51.216;6.778;2022-07-22T09:28:32;17.80;;;11.47;;
13753;SDS011;6948;51.216;6.778;2022-07-22T09:30:58;17.40;;;11.70;;
13753;SDS011;6948;51.216;6.778;2022-07-22T09:33:24;20.13;;;12.03;;
13753;SDS011;6948;51.216;6.778;2022-07-22T09:35:51;17.63;;;12.10;;
13753;SDS011;6948;51.216;6.778;2022-07-22T09:38:18;17.63;;;12.33;;
13753;SDS011;6948;51.216;6.778;2022-07-22T09:40:45;17.33;;;11.83;;
13753;SDS011;6948;51.216;6.778;2022-07-22T09:43:12;18.63;;;12.37;;
13753;SDS011;6948;51.216;6.778;2022-07-22T09:48:22;24.20;;;14.53;;
13753;SDS011;6948;51.216;6.778;2022-07-22T09:50:49;23.20;;;14.63;;
13753;SDS011;6948;51.216;6.778;2022-07-22T09:53:16;21.87;;;14.27;;
13753;SDS011;6948;51.216;6.778;2022-07-22T09:55:42;24.90;;;14.53;;
13753;SDS011;6948;51.216;6.778;2022-07-22T09:58:08;22.23;;;13.67;;
13753;SDS011;6948;51.216;6.778;2022-07-22T10:00:36;21.10;;;15.00;;
13753;SDS011;6948;51.216;6.778;2022-07-22T10:03:05;22.83;;;14.93;;
13753;SDS011;6948;51.216;6.778;2022-07-22T10:05:34;20.97;;;14.47;;
13753;SDS011;6948;51.216;6.778;2022-07-22T10:08:01;20.67;;;14.27;;
13753;SDS011;6948;51.216;6.778;2022-07-22T10:10:28;21.77;;;14.43;;
13753;SDS011;6948;51.216;6.778;2022-07-22T10:12:56;22.67;;;14.97;;
13753;SDS011;6948;51.216;6.778;2022-07-22T10:15:23;22.17;;;13.80;;
13753;SDS011;6948;51.216;6.778;2022-07-22T10:17:51;22.73;;;14.47;;
13753;SDS011;6948;51.216;6.778;2022-07-22T10:20:18;19.83;;;13.90;;
13753;SDS011;6948;51.216;6.778;2022-07-22T10:22:45;20.43;;;14.20;;
13753;SDS011;6948;51.216;6.778;2022-07-22T10:25:14;23.00;;;14.83;;
13753;SDS011;6948;51.216;6.778;2022-07-22T10:30:30;22.80;;;15.30;;
13753;SDS011;6948;51.216;6.778;2022-07-22T10:38:27;23.57;;;15.53;;
13753;SDS011;6948;51.216;6.778;2022-07-22T10:43:31;23.67;;;15.80;;
13753;SDS011;6948;51.216;6.778;2022-07-22T10:45:59;20.67;;;15.47;;
13753;SDS011;6948;51.216;6.778;2022-07-22T10:53:46;22.03;;;16.77;;
13753;SDS011;6948;51.216;6.778;2022-07-22T10:58:51;21.83;;;16.20;;
13753;SDS011;6948;51.216;6.778;2022-07-22T11:01:18;21.23;;;16.33;;
13753;SDS011;6948;51.216;6.778;2022-07-22T11:03:45;21.20;;;16.57;;
13753;SDS011;6948;51.216;6.778;2022-07-22T11:06:13;22.60;;;17.13;;
13753;SDS011;6948;51.216;6.778;2022-07-22T11:08:39;21.30;;;17.47;;
13753;SDS011;6948;51.216;6.778;2022-07-22T11:11:06;21.93;;;17.03;;
13753;SDS011;6948;51.216;6.778;2022-07-22T11:13:32;24.33;;;17.40;;
13753;SDS011;6948;51.216;6.778;2022-07-22T11:21:24;25.97;;;17.83;;
13753;SDS011;6948;51.216;6.778;2022-07-22T11:23:51;23.43;;;17.63;;
13753;SDS011;6948;51.216;6.778;2022-07-22T11:26:18;25.20;;;18.93;;
13753;SDS011;6948;51.216;6.778;2022-07-22T11:28:45;22.73;;;17.53;;
13753;SDS011;6948;51.216;6.778;2022-07-22T11:31:15;25.13;;;18.23;;
13753;SDS011;6948;51.216;6.778;2022-07-22T11:33:42;19.57;;;16.80;;
13753;SDS011;6948;51.216;6.778;2022-07-22T11:36:08;16.50;;;14.80;;
13753;SDS011;6948;51.216;6.778;2022-07-22T11:38:43;16.43;;;14.60;;
13753;SDS011;6948;51.216;6.778;2022-07-22T11:41:10;18.90;;;15.27;;
13753;SDS011;6948;51.216;6.778;2022-07-22T11:43:45;16.63;;;12.60;;
13753;SDS011;6948;51.216;6.778;2022-07-22T11:46:12;17.07;;;12.90;;
13753;SDS011;6948;51.216;6.778;2022-07-22T11:48:38;16.47;;;13.50;;
13753;SDS011;6948;51.216;6.778;2022-07-22T11:51:05;17.03;;;13.37;;
13753;SDS011;6948;51.216;6.778;2022-07-22T11:53:32;15.93;;;13.60;;
13753;SDS011;6948;51.216;6.778;2022-07-22T11:55:59;17.33;;;13.80;;
13753;SDS011;6948;51.216;6.778;2022-07-22T12:01:19;19.33;;;15.20;;
13753;SDS011;6948;51.216;6.778;2022-07-22T12:03:47;17.43;;;14.77;;
13753;SDS011;6948;51.216;6.778;2022-07-22T12:06:15;21.67;;;15.97;;
13753;SDS011;6948;51.216;6.778;2022-07-22T12:08:42;22.17;;;17.27;;
13753;SDS011;6948;51.216;6.778;2022-07-22T12:11:09;23.47;;;16.67;;
13753;SDS011;6948;51.216;6.778;2022-07-22T12:13:35;20.27;;;16.83;;
13753;SDS011;6948;51.216;6.778;2022-07-22T12:16:16;22.80;;;16.00;;
13753;SDS011;6948;51.216;6.778;2022-07-22T12:18:43;19.20;;;16.60;;
13753;SDS011;6948;51.216;6.778;2022-07-22T12:21:09;19.97;;;16.03;;
13753;SDS011;6948;51.216;6.778;2022-07-22T12:23:35;20.27;;;15.57;;
13753;SDS011;6948;51.216;6.778;2022-07-22T12:26:01;17.70;;;14.40;;
13753;SDS011;6948;51.216;6.778;2022-07-22T12:28:27;21.63;;;13.83;;
13753;SDS011;6948;51.216;6.778;2022-07-22T12:30:54;13.40;;;11.13;;
13753;SDS011;6948;51.216;6.778;2022-07-22T12:33:21;12.93;;;11.23;;
13753;SDS011;6948;51.216;6.778;2022-07-22T12:36:04;17.57;;;12.20;;
13753;SDS011;6948;51.216;6.778;2022-07-22T12:38:30;14.40;;;11.57;;
13753;SDS011;6948;51.216;6.778;2022-07-22T12:40:56;14.87;;;11.63;;
13753;SDS011;6948;51.216;6.778;2022-07-22T12:43:42;14.77;;;11.57;;
13753;SDS011;6948;51.216;6.778;2022-07-22T12:46:09;15.13;;;11.40;;
13753;SDS011;6948;51.216;6.778;2022-07-22T12:48:35;15.80;;;12.90;;
13753;SDS011;6948;51.216;6.778;2022-07-22T12:51:01;17.40;;;13.70;;
13753;SDS011;6948;51.216;6.778;2022-07-22T12:53:27;17.77;;;13.13;;
13753;SDS011;6948;51.216;6.778;2022-07-22T12:55:55;15.27;;;13.13;;
13753;SDS011;6948;51.216;6.778;2022-07-22T12:58:24;15.67;;;12.73;;
13753;SDS011;6948;51.216;6.778;2022-07-22T13:00:51;17.03;;;13.03;;
13753;SDS011;6948;51.216;6.778;2022-07-22T13:03:18;15.73;;;12.63;;
13753;SDS011;6948;51.216;6.778;2022-07-22T13:05:46;16.03;;;11.53;;
13753;SDS011;6948;51.216;6.778;2022-07-22T13:08:12;16.20;;;11.43;;
13753;SDS011;6948;51.216;6.778;2022-07-22T13:10:38;14.40;;;10.23;;
13753;SDS011;6948;51.216;6.778;2022-07-22T13:13:04;12.27;;;10.43;;
13753;SDS011;6948;51.216;6.778;2022-07-22T13:15:30;14.30;;;10.93;;
13753;SDS011;6948;51.216;6.778;2022-07-22T13:17:56;15.53;;;11.83;;
13753;SDS011;6948;51.216;6.778;2022-07-22T13:20:22;12.90;;;11.50;;
13753;SDS011;6948;51.216;6.778;2022-07-22T13:22:48;14.80;;;11.50;;
13753;SDS011;6948;51.216;6.778;2022-07-22T13:25:14;13.80;;;12.20;;
13753;SDS011;6948;51.216;6.778;2022-07-22T13:27:40;14.07;;;11.73;;
13753;SDS011;6948;51.216;6.778;2022-07-22T13:30:06;14.80;;;11.80;;
13753;SDS011;6948;51.216;6.778;2022-07-22T13:32:32;14.47;;;10.40;;
13753;SDS011;6948;51.216;6.778;2022-07-22T13:34:58;13.17;;;9.90;;
13753;SDS011;6948;51.216;6.778;2022-07-22T13:37:24;15.07;;;11.50;;
13753;SDS011;6948;51.216;6.778;2022-07-22T13:39:51;11.73;;;9.80;;
13753;SDS011;6948;51.216;6.778;2022-07-22T13:42:17;13.10;;;10.40;;
13753;SDS011;6948;51.216;6.778;2022-07-22T13:44:45;11.60;;;9.53;;
13753;SDS011;6948;51.216;6.778;2022-07-22T13:47:12;13.57;;;9.57;;
13753;SDS011;6948;51.216;6.778;2022-07-22T13:49:38;10.23;;;9.13;;
13753;SDS011;6948;51.216;6.778;2022-07-22T13:52:04;11.13;;;8.13;;
13753;SDS011;6948;51.216;6.778;2022-07-22T13:54:30;10.43;;;8.70;;
13753;SDS011;6948;51.216;6.778;2022-07-22T13:56:57;11.50;;;9.27;;
13753;SDS011;6948;51.216;6.778;2022-07-22T13:59:24;13.77;;;10.10;;
13753;SDS011;6948;51.216;6.778;2022-07-22T14:01:50;11.37;;;10.13;;
13753;SDS011;6948;51.216;6.778;2022-07-22T14:04:16;13.97;;;10.30;;
13753;SDS011;6948;51.216;6.778;2022-07-22T14:06:42;19.50;;;15.27;;
13753;SDS011;6948;51.216;6.778;2022-07-22T14:09:08;19.30;;;17.30;;
13753;SDS011;6948;51.216;6.778;2022-07-22T14:11:34;20.60;;;16.63;;
13753;SDS011;6948;51.216;6.778;2022-07-22T14:14:00;20.83;;;17.40;;
13753;SDS011;6948;51.216;6.778;2022-07-22T14:16:26;19.93;;;16.30;;
13753;SDS011;6948;51.216;6.778;2022-07-22T14:19:02;20.00;;;15.90;;
13753;SDS011;6948;51.216;6.778;2022-07-22T14:21:28;17.53;;;15.73;;
13753;SDS011;6948;51.216;6.778;2022-07-22T14:23:54;17.43;;;15.10;;
13753;SDS011;6948;51.216;6.778;2022-07-22T14:26:21;18.00;;;13.80;;
13753;SDS011;6948;51.216;6.778;2022-07-22T14:28:47;17.87;;;14.97;;
13753;SDS011;6948;51.216;6.778;2022-07-22T14:31:13;18.60;;;16.20;;
13753;SDS011;6948;51.216;6.778;2022-07-22T14:33:40;16.90;;;15.20;;
13753;SDS011;6948;51.216;6.778;2022-07-22T14:36:06;15.47;;;13.73;;
13753;SDS011;6948;51.216;6.778;2022-07-22T14:38:32;14.60;;;13.10;;
13753;SDS011;6948;51.216;6.778;2022-07-22T14:40:58;14.27;;;12.73;;
13753;SDS011;6948;51.216;6.778;2022-07-22T14:43:24;14.23;;;12.60;;
13753;SDS011;6948;51.216;6.778;2022-07-22T14:45:51;14.53;;;12.57;;
13753;SDS011;6948;51.216;6.778;2022-07-22T14:48:17;13.00;;;11.50;;
13753;SDS011;6948;51.216;6.778;2022-07-22T14:50:43;12.50;;;11.13;;
13753;SDS011;6948;51.216;6.778;2022-07-22T14:53:09;12.80;;;9.97;;
13753;SDS011;6948;51.216;6.778;2022-07-22T14:55:35;13.80;;;10.80;;
13753;SDS011;6948;51.216;6.778;2022-07-22T14:58:01;12.97;;;9.83;;
13753;SDS011;6948;51.216;6.778;2022-07-22T15:00:27;11.77;;;9.87;;
13753;SDS011;6948;51.216;6.778;2022-07-22T15:02:54;12.93;;;9.83;;
13753;SDS011;6948;51.216;6.778;2022-07-22T15:05:20;12.83;;;9.80;;
13753;SDS011;6948;51.216;6.778;2022-07-22T15:07:46;12.87;;;9.87;;
13753;SDS011;6948;51.216;6.778;2022-07-22T15:10:13;13.00;;;9.60;;
13753;SDS011;6948;51.216;6.778;2022-07-22T15:12:39;14.90;;;10.40;;
13753;SDS011;6948;51.216;6.778;2022-07-22T15:15:05;11.23;;;9.97;;